createdAt,value
2018-11-23T00:00:11.070Z,1020.42
2018-11-23T00:01:11.025Z,1020.47
2018-11-23T00:02:10.990Z,1020.40
2018-11-23T00:03:10.993Z,1020.44
2018-11-23T00:04:10.902Z,1020.40
2018-11-23T00:05:10.861Z,1020.39
2018-11-23T00:06:10.822Z,1020.40
2018-11-23T00:07:10.779Z,1020.37
2018-11-23T00:08:10.738Z,1020.33
2018-11-23T00:09:10.697Z,1020.33
2018-11-23T00:10:11.224Z,1020.32
2018-11-23T00:11:10.615Z,1020.34
2018-11-23T00:12:10.574Z,1020.33
2018-11-23T00:13:10.535Z,1020.37
2018-11-23T00:14:10.494Z,1020.37
2018-11-23T00:15:10.451Z,1020.35
2018-11-23T00:16:10.411Z,1020.35
2018-11-23T00:17:10.373Z,1020.36
2018-11-23T00:18:10.330Z,1020.34
2018-11-23T00:19:10.289Z,1020.36
2018-11-23T00:20:10.248Z,1020.30
2018-11-23T00:21:10.207Z,1020.30
2018-11-23T00:22:10.166Z,1020.24
2018-11-23T00:23:10.129Z,1020.26
2018-11-23T00:24:10.084Z,1020.22
2018-11-23T00:25:10.044Z,1020.23
2018-11-23T00:26:10.003Z,1020.23
2018-11-23T00:27:09.964Z,1020.22
2018-11-23T00:28:09.921Z,1020.22
2018-11-23T00:29:09.880Z,1020.20
2018-11-23T00:30:09.839Z,1020.24
2018-11-23T00:31:09.798Z,1020.20
2018-11-23T00:32:09.756Z,1020.22
2018-11-23T00:33:09.716Z,1020.20
2018-11-23T00:34:09.675Z,1020.21
2018-11-23T00:35:09.634Z,1020.23
2018-11-23T00:36:09.593Z,1020.22
2018-11-23T00:37:09.551Z,1020.23
2018-11-23T00:38:09.511Z,1020.27
2018-11-23T00:39:09.469Z,1020.23
2018-11-23T00:40:09.428Z,1020.21
2018-11-23T00:41:09.387Z,1020.22
2018-11-23T00:42:09.345Z,1020.22
2018-11-23T00:43:09.304Z,1020.23
2018-11-23T00:44:09.263Z,1020.22
2018-11-23T00:45:09.221Z,1020.26
2018-11-23T00:46:09.180Z,1020.25
2018-11-23T00:47:09.137Z,1020.23
2018-11-23T00:48:09.096Z,1020.28
2018-11-23T00:49:09.063Z,1020.29
2018-11-23T00:50:09.014Z,1020.27
2018-11-23T00:51:08.971Z,1020.29
2018-11-23T00:52:08.930Z,1020.34
2018-11-23T00:53:08.888Z,1020.32
2018-11-23T00:54:08.847Z,1020.33
2018-11-23T00:55:08.806Z,1020.29
2018-11-23T00:56:08.763Z,1020.28
2018-11-23T00:57:08.721Z,1020.28
2018-11-23T00:58:08.684Z,1020.25
2018-11-23T00:59:08.637Z,1020.23
2018-11-23T01:00:08.597Z,1020.22
2018-11-23T01:01:08.555Z,1020.23
2018-11-23T01:02:08.516Z,1020.25
2018-11-23T01:03:08.483Z,1020.23
2018-11-23T01:04:08.432Z,1020.22
2018-11-23T01:05:08.386Z,1020.20
2018-11-23T01:06:08.344Z,1020.16
2018-11-23T01:07:08.303Z,1020.16
2018-11-23T01:08:08.260Z,1020.14
2018-11-23T01:09:08.217Z,1020.20
2018-11-23T01:10:08.178Z,1020.15
2018-11-23T01:11:08.133Z,1020.15
2018-11-23T01:12:08.091Z,1020.14
2018-11-23T01:13:08.050Z,1020.17
2018-11-23T01:14:08.008Z,1020.14
2018-11-23T01:15:07.969Z,1020.14
2018-11-23T01:16:07.923Z,1020.09
2018-11-23T01:17:07.881Z,1020.16
2018-11-23T01:18:07.841Z,1020.10
2018-11-23T01:19:07.797Z,1020.07
2018-11-23T01:20:07.756Z,1020.09
2018-11-23T01:21:07.713Z,1020.08
2018-11-23T01:22:07.672Z,1020.08
2018-11-23T01:23:07.630Z,1020.02
2018-11-23T01:24:07.588Z,1020.07
2018-11-23T01:25:07.549Z,1020.06
2018-11-23T01:26:07.509Z,1020.09
2018-11-23T01:27:07.779Z,1020.06
2018-11-23T01:28:07.425Z,1020.04
2018-11-23T01:29:07.380Z,1020.03
2018-11-23T01:30:07.338Z,1020.07
2018-11-23T01:31:07.296Z,1020.02
2018-11-23T01:32:07.255Z,1020.07
2018-11-23T01:33:07.214Z,1020.04
2018-11-23T01:34:07.172Z,1020.08
2018-11-23T01:35:07.131Z,1020.08
2018-11-23T01:36:07.089Z,1020.06
2018-11-23T01:37:07.047Z,1020.07
2018-11-23T01:38:07.006Z,1020.07
2018-11-23T01:39:06.964Z,1020.08
2018-11-23T01:40:06.925Z,1020.04
2018-11-23T01:41:06.881Z,1020.06
2018-11-23T01:42:06.840Z,1020.10
2018-11-23T01:43:06.798Z,1020.06
2018-11-23T01:44:06.757Z,1020.01
2018-11-23T01:45:06.716Z,1019.99
2018-11-23T01:46:06.674Z,1019.99
2018-11-23T01:47:06.632Z,1019.98
2018-11-23T01:48:06.591Z,1019.96
2018-11-23T01:49:06.549Z,1019.96
2018-11-23T01:50:06.508Z,1019.97
2018-11-23T01:51:06.465Z,1019.95
2018-11-23T01:52:06.425Z,1019.92
2018-11-23T01:53:06.385Z,1019.93
2018-11-23T01:54:06.342Z,1019.94
2018-11-23T01:55:06.300Z,1019.89
2018-11-23T01:56:06.258Z,1019.93
2018-11-23T01:57:06.221Z,1019.85
2018-11-23T01:58:06.176Z,1019.86
2018-11-23T01:59:06.134Z,1019.79
2018-11-23T02:00:06.092Z,1019.80
2018-11-23T02:01:06.051Z,1019.82
2018-11-23T02:02:06.009Z,1019.78
2018-11-23T02:03:05.967Z,1019.82
2018-11-23T02:04:05.926Z,1019.85
2018-11-23T02:05:05.890Z,1019.84
2018-11-23T02:06:05.846Z,1019.78
2018-11-23T02:07:05.801Z,1019.87
2018-11-23T02:08:05.759Z,1019.91
2018-11-23T02:09:05.720Z,1019.83
2018-11-23T02:10:05.676Z,1019.82
2018-11-23T02:11:05.634Z,1019.90
2018-11-23T02:12:05.592Z,1019.84
2018-11-23T02:13:05.550Z,1019.90
2018-11-23T02:14:05.510Z,1019.87
2018-11-23T02:15:05.467Z,1019.94
2018-11-23T02:16:05.426Z,1019.95
2018-11-23T02:17:05.384Z,1019.90
2018-11-23T02:18:05.343Z,1019.86
2018-11-23T02:19:05.301Z,1019.85
2018-11-23T02:20:05.264Z,1019.83
2018-11-23T02:21:05.220Z,1019.84
2018-11-23T02:22:05.179Z,1019.81
2018-11-23T02:23:05.135Z,1019.84
2018-11-23T02:24:05.095Z,1019.83
2018-11-23T02:25:05.053Z,1019.84
2018-11-23T02:26:05.020Z,1019.81
2018-11-23T02:27:04.969Z,1019.82
2018-11-23T02:28:04.929Z,1019.82
2018-11-23T02:29:04.890Z,1019.76
2018-11-23T02:30:04.845Z,1019.74
2018-11-23T02:31:04.805Z,1019.73
2018-11-23T02:32:04.763Z,1019.75
2018-11-23T02:33:04.723Z,1019.72
2018-11-23T02:34:04.682Z,1019.74
2018-11-23T02:35:04.640Z,1019.72
2018-11-23T02:36:04.917Z,1019.69
2018-11-23T02:37:04.875Z,1019.65
2018-11-23T02:38:04.834Z,1019.68
2018-11-23T02:39:04.476Z,1019.67
2018-11-23T02:40:04.436Z,1019.64
2018-11-23T02:41:04.394Z,1019.64
2018-11-23T02:42:04.356Z,1019.65
2018-11-23T02:43:04.311Z,1019.64
2018-11-23T02:44:04.271Z,1019.63
2018-11-23T02:45:04.230Z,1019.60
2018-11-23T02:46:04.192Z,1019.61
2018-11-23T02:47:04.147Z,1019.60
2018-11-23T02:48:04.111Z,1019.60
2018-11-23T02:49:04.066Z,1019.63
2018-11-23T02:50:04.025Z,1019.56
2018-11-23T02:51:03.984Z,1019.55
2018-11-23T02:52:03.943Z,1019.53
2018-11-23T02:53:03.904Z,1019.50
2018-11-23T02:54:03.861Z,1019.54
2018-11-23T02:55:03.820Z,1019.52
2018-11-23T02:56:03.781Z,1019.50
2018-11-23T02:57:03.738Z,1019.50
2018-11-23T02:58:03.701Z,1019.52
2018-11-23T02:59:03.655Z,1019.53
2018-11-23T03:00:03.616Z,1019.48
2018-11-23T03:01:03.578Z,1019.52
2018-11-23T03:02:03.535Z,1019.48
2018-11-23T03:03:03.491Z,1019.50
2018-11-23T03:04:03.453Z,1019.50
2018-11-23T03:05:03.409Z,1019.46
2018-11-23T03:06:03.368Z,1019.50
2018-11-23T03:07:03.327Z,1019.47
2018-11-23T03:08:03.289Z,1019.46
2018-11-23T03:09:03.244Z,1019.49
2018-11-23T03:10:03.202Z,1019.46
2018-11-23T03:11:03.161Z,1019.41
2018-11-23T03:12:03.119Z,1019.44
2018-11-23T03:13:03.078Z,1019.43
2018-11-23T03:14:03.037Z,1019.45
2018-11-23T03:15:02.994Z,1019.45
2018-11-23T03:16:02.953Z,1019.43
2018-11-23T03:17:02.911Z,1019.45
2018-11-23T03:18:02.871Z,1019.45
2018-11-23T03:19:02.827Z,1019.42
2018-11-23T03:20:02.789Z,1019.46
2018-11-23T03:21:02.745Z,1019.46
2018-11-23T03:22:02.704Z,1019.44
2018-11-23T03:23:02.662Z,1019.40
2018-11-23T03:24:02.619Z,1019.38
2018-11-23T03:25:02.578Z,1019.40
2018-11-23T03:26:02.538Z,1019.41
2018-11-23T03:27:02.494Z,1019.39
2018-11-23T03:28:02.452Z,1019.42
2018-11-23T03:29:02.414Z,1019.39
2018-11-23T03:30:02.369Z,1019.37
2018-11-23T03:31:02.326Z,1019.40
2018-11-23T03:32:02.294Z,1019.40
2018-11-23T03:33:02.244Z,1019.39
2018-11-23T03:34:02.202Z,1019.41
2018-11-23T03:35:02.159Z,1019.37
2018-11-23T03:36:02.118Z,1019.40
2018-11-23T03:37:02.076Z,1019.39
2018-11-23T03:38:02.036Z,1019.35
2018-11-23T03:39:01.992Z,1019.37
2018-11-23T03:40:01.950Z,1019.35
2018-11-23T03:41:01.908Z,1019.35
2018-11-23T03:42:01.870Z,1019.34
2018-11-23T03:43:01.826Z,1019.32
2018-11-23T03:44:01.788Z,1019.32
2018-11-23T03:45:01.741Z,1019.33
2018-11-23T03:46:01.699Z,1019.31
2018-11-23T03:47:01.657Z,1019.28
2018-11-23T03:48:01.618Z,1019.32
2018-11-23T03:49:01.575Z,1019.31
2018-11-23T03:50:01.534Z,1019.33
2018-11-23T03:51:01.490Z,1019.27
2018-11-23T03:52:01.448Z,1019.23
2018-11-23T03:53:01.408Z,1019.31
2018-11-23T03:54:01.368Z,1019.27
2018-11-23T03:55:01.325Z,1019.27
2018-11-23T03:56:01.283Z,1019.29
2018-11-23T03:57:01.242Z,1019.31
2018-11-23T03:58:01.202Z,1019.27
2018-11-23T03:59:01.159Z,1019.28
2018-11-23T04:00:01.116Z,1019.26
2018-11-23T04:01:01.074Z,1019.28
2018-11-23T04:02:01.032Z,1019.29
2018-11-23T04:03:00.990Z,1019.28
2018-11-23T04:04:00.948Z,1019.30
2018-11-23T04:05:00.907Z,1019.27
2018-11-23T04:06:00.866Z,1019.27
2018-11-23T04:07:00.824Z,1019.26
2018-11-23T04:08:00.787Z,1019.29
2018-11-23T04:09:00.742Z,1019.29
2018-11-23T04:10:00.700Z,1019.26
2018-11-23T04:11:00.660Z,1019.21
2018-11-23T04:12:00.617Z,1019.23
2018-11-23T04:13:00.575Z,1019.24
2018-11-23T04:14:00.534Z,1019.23
2018-11-23T04:15:00.492Z,1019.22
2018-11-23T04:16:00.452Z,1019.20
2018-11-23T04:17:00.410Z,1019.22
2018-11-23T04:18:00.369Z,1019.26
2018-11-23T04:19:00.328Z,1019.18
2018-11-23T04:20:00.285Z,1019.22
2018-11-23T04:21:00.248Z,1019.28
2018-11-23T04:22:00.203Z,1019.23
2018-11-23T04:23:00.162Z,1019.29
2018-11-23T04:24:00.121Z,1019.25
2018-11-23T04:25:00.079Z,1019.29
2018-11-23T04:26:00.044Z,1019.29
2018-11-23T04:26:59.996Z,1019.27
2018-11-23T04:27:59.955Z,1019.21
2018-11-23T04:28:59.913Z,1019.20
2018-11-23T04:29:59.872Z,1019.23
2018-11-23T04:30:59.833Z,1019.22
2018-11-23T04:31:59.790Z,1019.22
2018-11-23T04:32:59.752Z,1019.23
2018-11-23T04:33:59.709Z,1019.24
2018-11-23T04:34:59.665Z,1019.21
2018-11-23T04:35:59.631Z,1019.29
2018-11-23T04:36:59.583Z,1019.27
2018-11-23T04:37:59.541Z,1019.26
2018-11-23T04:38:59.500Z,1019.32
2018-11-23T04:39:59.459Z,1019.26
2018-11-23T04:40:59.422Z,1019.24
2018-11-23T04:41:59.376Z,1019.29
2018-11-23T04:42:59.334Z,1019.30
2018-11-23T04:43:59.293Z,1019.32
2018-11-23T04:44:59.252Z,1019.32
2018-11-23T04:45:59.211Z,1019.28
2018-11-23T04:46:59.169Z,1019.30
2018-11-23T04:47:59.128Z,1019.33
2018-11-23T04:48:59.089Z,1019.33
2018-11-23T04:49:59.046Z,1019.38
2018-11-23T04:50:59.004Z,1019.33
2018-11-23T04:51:58.962Z,1019.37
2018-11-23T04:52:58.921Z,1019.39
2018-11-23T04:53:58.879Z,1019.40
2018-11-23T04:54:58.837Z,1019.35
2018-11-23T04:55:58.797Z,1019.35
2018-11-23T04:56:58.755Z,1019.38
2018-11-23T04:57:58.714Z,1019.37
2018-11-23T04:58:58.675Z,1019.34
2018-11-23T04:59:58.630Z,1019.33
2018-11-23T05:00:58.590Z,1019.35
2018-11-23T05:01:58.548Z,1019.41
2018-11-23T05:02:58.506Z,1019.40
2018-11-23T05:03:58.465Z,1019.39
2018-11-23T05:04:58.424Z,1019.38
2018-11-23T05:05:58.382Z,1019.35
2018-11-23T05:06:58.340Z,1019.33
2018-11-23T05:07:58.299Z,1019.32
2018-11-23T05:08:58.258Z,1019.33
2018-11-23T05:09:58.216Z,1019.32
2018-11-23T05:10:58.180Z,1019.29
2018-11-23T05:11:58.133Z,1019.33
2018-11-23T05:12:58.092Z,1019.30
2018-11-23T05:13:58.053Z,1019.29
2018-11-23T05:14:58.009Z,1019.30
2018-11-23T05:15:57.967Z,1019.27
2018-11-23T05:16:57.931Z,1019.31
2018-11-23T05:17:57.884Z,1019.26
2018-11-23T05:18:57.842Z,1019.27
2018-11-23T05:19:57.800Z,1019.29
2018-11-23T05:20:57.760Z,1019.25
2018-11-23T05:21:57.718Z,1019.29
2018-11-23T05:22:57.676Z,1019.24
2018-11-23T05:23:57.634Z,1019.30
2018-11-23T05:24:57.621Z,1019.25
2018-11-23T05:25:57.551Z,1019.23
2018-11-23T05:26:57.513Z,1019.24
2018-11-23T05:27:57.468Z,1019.21
2018-11-23T05:28:57.427Z,1019.19
2018-11-23T05:29:57.386Z,1019.23
2018-11-23T05:30:57.344Z,1019.18
2018-11-23T05:31:57.302Z,1019.18
2018-11-23T05:32:57.264Z,1019.17
2018-11-23T05:33:57.219Z,1019.16
2018-11-23T05:34:57.178Z,1019.15
2018-11-23T05:35:57.137Z,1019.17
2018-11-23T05:36:57.096Z,1019.17
2018-11-23T05:37:57.053Z,1019.13
2018-11-23T05:38:57.012Z,1019.18
2018-11-23T05:39:56.972Z,1019.13
2018-11-23T05:40:56.933Z,1019.17
2018-11-23T05:41:56.889Z,1019.14
2018-11-23T05:42:56.848Z,1019.14
2018-11-23T05:43:56.807Z,1019.13
2018-11-23T05:44:56.766Z,1019.14
2018-11-23T05:45:56.726Z,1019.14
2018-11-23T05:46:56.690Z,1019.10
2018-11-23T05:47:56.645Z,1019.14
2018-11-23T05:48:56.605Z,1019.11
2018-11-23T05:49:56.562Z,1019.11
2018-11-23T05:50:56.524Z,1019.10
2018-11-23T05:51:56.480Z,1019.08
2018-11-23T05:52:56.439Z,1019.11
2018-11-23T05:53:56.399Z,1019.13
2018-11-23T05:54:56.358Z,1019.17
2018-11-23T05:55:56.321Z,1019.12
2018-11-23T05:56:56.276Z,1019.14
2018-11-23T05:57:56.236Z,1019.12
2018-11-23T05:58:56.194Z,1019.14
2018-11-23T05:59:56.154Z,1019.16
2018-11-23T06:00:56.121Z,1019.15
2018-11-23T06:01:56.080Z,1019.16
2018-11-23T06:02:56.032Z,1019.19
2018-11-23T06:03:55.992Z,1019.13
2018-11-23T06:04:55.952Z,1019.12
2018-11-23T06:05:55.911Z,1019.15
2018-11-23T06:06:55.870Z,1019.14
2018-11-23T06:07:55.887Z,1019.11
2018-11-23T06:08:55.791Z,1019.13
2018-11-23T06:09:55.750Z,1019.19
2018-11-23T06:10:55.708Z,1019.14
2018-11-23T06:11:55.678Z,1019.12
2018-11-23T06:12:55.667Z,1019.20
2018-11-23T06:13:55.589Z,1019.18
2018-11-23T06:14:55.547Z,1019.18
2018-11-23T06:15:55.506Z,1019.20
2018-11-23T06:16:55.466Z,1019.15
2018-11-23T06:17:55.426Z,1019.19
2018-11-23T06:18:55.384Z,1019.18
2018-11-23T06:19:55.345Z,1019.20
2018-11-23T06:20:55.304Z,1019.24
2018-11-23T06:21:55.264Z,1019.22
2018-11-23T06:22:55.223Z,1019.19
2018-11-23T06:23:55.183Z,1019.24
2018-11-23T06:24:55.143Z,1019.21
2018-11-23T06:25:55.102Z,1019.20
2018-11-23T06:26:55.061Z,1019.19
2018-11-23T06:27:55.021Z,1019.19
2018-11-23T06:28:54.980Z,1019.19
2018-11-23T06:29:54.940Z,1019.20
2018-11-23T06:30:54.899Z,1019.19
2018-11-23T06:31:54.864Z,1019.21
2018-11-23T06:32:54.818Z,1019.17
2018-11-23T06:33:54.781Z,1019.20
2018-11-23T06:34:54.736Z,1019.23
2018-11-23T06:35:54.696Z,1019.18
2018-11-23T06:36:54.657Z,1019.18
2018-11-23T06:37:54.615Z,1019.18
2018-11-23T06:38:54.574Z,1019.15
2018-11-23T06:39:54.533Z,1019.18
2018-11-23T06:40:54.493Z,1019.20
2018-11-23T06:41:54.453Z,1019.15
2018-11-23T06:42:54.411Z,1019.16
2018-11-23T06:43:54.371Z,1019.16
2018-11-23T06:44:54.331Z,1019.15
2018-11-23T06:45:54.290Z,1019.17
2018-11-23T06:46:54.249Z,1019.21
2018-11-23T06:47:54.208Z,1019.19
2018-11-23T06:48:54.168Z,1019.18
2018-11-23T06:49:54.126Z,1019.18
2018-11-23T06:50:54.086Z,1019.19
2018-11-23T06:51:54.046Z,1019.20
2018-11-23T06:52:54.009Z,1019.19
2018-11-23T06:53:53.964Z,1019.21
2018-11-23T06:54:53.923Z,1019.25
2018-11-23T06:55:53.883Z,1019.24
2018-11-23T06:56:53.842Z,1019.24
2018-11-23T06:57:53.803Z,1019.23
2018-11-23T06:58:53.760Z,1019.20
2018-11-23T06:59:53.723Z,1019.24
2018-11-23T07:00:53.683Z,1019.22
2018-11-23T07:01:53.955Z,1019.27
2018-11-23T07:02:59.071Z,1019.28
2018-11-23T07:03:53.556Z,1019.21
2018-11-23T07:04:53.517Z,1019.24
2018-11-23T07:05:53.475Z,1019.22
2018-11-23T07:06:53.433Z,1019.19
2018-11-23T07:07:53.394Z,1019.22
2018-11-23T07:08:53.352Z,1019.25
2018-11-23T07:09:53.312Z,1019.23
2018-11-23T07:10:53.269Z,1019.25
2018-11-23T07:11:53.229Z,1019.25
2018-11-23T07:12:53.191Z,1019.21
2018-11-23T07:13:53.147Z,1019.26
2018-11-23T07:14:53.105Z,1019.22
2018-11-23T07:15:53.064Z,1019.24
2018-11-23T07:16:53.022Z,1019.24
2018-11-23T07:17:52.982Z,1019.21
2018-11-23T07:18:52.941Z,1019.19
2018-11-23T07:19:52.900Z,1019.17
2018-11-23T07:20:53.863Z,1019.18
2018-11-23T07:21:52.819Z,1019.22
2018-11-23T07:22:52.774Z,1019.17
2018-11-23T07:23:52.734Z,1019.16
2018-11-23T07:24:52.693Z,1019.19
2018-11-23T07:25:52.652Z,1019.19
2018-11-23T07:26:52.610Z,1019.18
2018-11-23T07:27:52.569Z,1019.19
2018-11-23T07:28:52.527Z,1019.18
2018-11-23T07:29:52.538Z,1019.20
2018-11-23T07:30:52.443Z,1019.23
2018-11-23T07:31:52.401Z,1019.14
2018-11-23T07:32:52.360Z,1019.21
2018-11-23T07:33:52.321Z,1019.14
2018-11-23T07:34:52.275Z,1019.14
2018-11-23T07:35:52.233Z,1019.21
2018-11-23T07:36:52.292Z,1019.18
2018-11-23T07:37:52.149Z,1019.24
2018-11-23T07:38:52.106Z,1019.23
2018-11-23T07:39:52.065Z,1019.20
2018-11-23T07:40:52.021Z,1019.17
2018-11-23T07:41:51.979Z,1019.17
2018-11-23T07:42:51.933Z,1019.15
2018-11-23T07:43:51.892Z,1019.18
2018-11-23T07:44:51.849Z,1019.13
2018-11-23T07:45:51.805Z,1019.15
2018-11-23T07:46:51.761Z,1019.10
2018-11-23T07:47:51.719Z,1019.13
2018-11-23T07:48:51.675Z,1019.14
2018-11-23T07:49:51.631Z,1019.14
2018-11-23T07:50:51.587Z,1019.14
2018-11-23T07:51:51.546Z,1019.13
2018-11-23T07:52:51.499Z,1019.14
2018-11-23T07:53:51.455Z,1019.13
2018-11-23T07:54:51.409Z,1019.12
2018-11-23T07:55:51.368Z,1019.14
2018-11-23T07:56:51.323Z,1019.14
2018-11-23T07:57:51.277Z,1019.13
2018-11-23T07:58:51.233Z,1019.12
2018-11-23T07:59:51.188Z,1019.13
2018-11-23T08:00:51.145Z,1019.16
2018-11-23T08:01:51.100Z,1019.16
2018-11-23T08:02:51.054Z,1019.16
2018-11-23T08:03:51.011Z,1019.15
2018-11-23T08:04:50.965Z,1019.14
2018-11-23T08:05:50.920Z,1019.11
2018-11-23T08:06:50.874Z,1019.09
2018-11-23T08:07:50.828Z,1019.07
2018-11-23T08:08:50.783Z,1019.05
2018-11-23T08:09:50.748Z,1019.11
2018-11-23T08:10:50.693Z,1019.14
2018-11-23T08:11:50.648Z,1019.11
2018-11-23T08:12:50.606Z,1019.10
2018-11-23T08:13:50.557Z,1019.11
2018-11-23T08:14:50.511Z,1019.14
2018-11-23T08:15:50.471Z,1019.11
2018-11-23T08:16:50.421Z,1019.12
2018-11-23T08:17:50.376Z,1019.11
2018-11-23T08:18:50.331Z,1019.15
2018-11-23T08:19:50.283Z,1019.13
2018-11-23T08:20:50.238Z,1019.13
2018-11-23T08:21:50.192Z,1019.07
2018-11-23T08:22:50.146Z,1019.10
2018-11-23T08:23:50.102Z,1019.08
2018-11-23T08:24:50.055Z,1019.06
2018-11-23T08:25:50.008Z,1019.11
2018-11-23T08:26:49.964Z,1019.07
2018-11-23T08:27:49.917Z,1019.09
2018-11-23T08:28:49.871Z,1019.05
2018-11-23T08:29:49.825Z,1019.05
2018-11-23T08:30:49.783Z,1019.05
2018-11-23T08:31:49.733Z,1019.02
2018-11-23T08:32:49.686Z,1019.08
2018-11-23T08:33:49.641Z,1019.08
2018-11-23T08:34:49.593Z,1019.03
2018-11-23T08:35:49.548Z,1019.04
2018-11-23T08:36:49.502Z,1018.99
2018-11-23T08:37:49.506Z,1019.02
2018-11-23T08:38:49.409Z,1019.00
2018-11-23T08:39:49.361Z,1018.99
2018-11-23T08:40:49.317Z,1018.92
2018-11-23T08:41:49.270Z,1018.98
2018-11-23T08:42:49.224Z,1018.96
2018-11-23T08:43:49.183Z,1019.00
2018-11-23T08:44:49.132Z,1018.96
2018-11-23T08:45:49.090Z,1018.97
2018-11-23T08:46:49.039Z,1018.95
2018-11-23T08:47:48.991Z,1018.95
2018-11-23T08:48:48.945Z,1018.92
2018-11-23T08:49:48.900Z,1018.91
2018-11-23T08:50:48.853Z,1018.88
2018-11-23T08:51:48.810Z,1018.93
2018-11-23T08:52:48.761Z,1018.90
2018-11-23T08:53:48.715Z,1018.88
2018-11-23T08:54:48.667Z,1018.91
2018-11-23T08:55:48.621Z,1018.89
2018-11-23T08:56:48.574Z,1018.91
2018-11-23T08:57:48.528Z,1018.87
2018-11-23T08:58:48.486Z,1018.86
2018-11-23T08:59:48.435Z,1018.88
2018-11-23T09:00:48.389Z,1018.86
2018-11-23T09:01:48.343Z,1018.91
2018-11-23T09:02:48.294Z,1018.91
2018-11-23T09:03:48.249Z,1018.88
2018-11-23T09:04:48.209Z,1018.84
2018-11-23T09:05:48.157Z,1018.87
2018-11-23T09:06:48.109Z,1018.90
2018-11-23T09:07:48.063Z,1018.88
2018-11-23T09:08:48.021Z,1018.87
2018-11-23T09:09:47.969Z,1018.89
2018-11-23T09:10:47.922Z,1018.87
2018-11-23T09:11:47.882Z,1018.90
2018-11-23T09:12:47.829Z,1018.90
2018-11-23T09:13:47.787Z,1018.92
2018-11-23T09:14:47.735Z,1018.92
2018-11-23T09:15:47.689Z,1018.91
2018-11-23T09:16:47.646Z,1018.96
2018-11-23T09:17:47.596Z,1018.87
2018-11-23T09:18:47.548Z,1018.89
2018-11-23T09:19:47.502Z,1018.87
2018-11-23T09:20:47.494Z,1018.86
2018-11-23T09:21:47.409Z,1018.89
2018-11-23T09:22:47.361Z,1018.87
2018-11-23T09:23:47.315Z,1018.91
2018-11-23T09:24:47.269Z,1018.86
2018-11-23T09:25:47.222Z,1018.86
2018-11-23T09:26:47.175Z,1018.88
2018-11-23T09:27:47.129Z,1018.87
2018-11-23T09:28:47.082Z,1018.91
2018-11-23T09:29:47.035Z,1018.92
2018-11-23T09:30:46.988Z,1018.88
2018-11-23T09:31:46.951Z,1018.87
2018-11-23T09:32:46.897Z,1018.90
2018-11-23T09:33:46.848Z,1018.94
2018-11-23T09:34:46.801Z,1018.91
2018-11-23T09:35:46.757Z,1018.95
2018-11-23T09:36:46.707Z,1018.95
2018-11-23T09:37:46.661Z,1018.94
2018-11-23T09:38:46.613Z,1018.93
2018-11-23T09:39:46.674Z,1018.89
2018-11-23T09:40:46.521Z,1018.88
2018-11-23T09:41:46.474Z,1018.82
2018-11-23T09:42:46.426Z,1018.84
2018-11-23T09:43:46.382Z,1018.85
2018-11-23T09:44:46.333Z,1018.89
2018-11-23T09:45:46.285Z,1018.84
2018-11-23T09:46:46.237Z,1018.82
2018-11-23T09:47:46.237Z,1018.82
2018-11-23T09:48:46.195Z,1018.81
2018-11-23T09:49:46.099Z,1018.83
2018-11-23T09:50:46.051Z,1018.81
2018-11-23T09:51:46.005Z,1018.83
2018-11-23T09:52:45.958Z,1018.86
2018-11-23T09:53:45.911Z,1018.81
2018-11-23T09:54:45.863Z,1018.78
2018-11-23T09:55:45.819Z,1018.76
2018-11-23T09:56:45.769Z,1018.73
2018-11-23T09:57:45.723Z,1018.66
2018-11-23T09:58:45.675Z,1018.68
2018-11-23T09:59:45.759Z,1018.67
2018-11-23T10:00:45.633Z,1018.69
2018-11-23T10:01:45.536Z,1018.67
2018-11-23T10:02:45.488Z,1018.64
2018-11-23T10:03:45.442Z,1018.63
2018-11-23T10:04:45.395Z,1018.65
2018-11-23T10:05:45.353Z,1018.63
2018-11-23T10:06:45.311Z,1018.63
2018-11-23T10:07:45.253Z,1018.63
2018-11-23T10:08:45.206Z,1018.60
2018-11-23T10:09:45.160Z,1018.61
2018-11-23T10:10:45.112Z,1018.64
2018-11-23T10:11:45.382Z,1018.62
2018-11-23T10:12:45.021Z,1018.54
2018-11-23T10:13:44.973Z,1018.53
2018-11-23T10:14:44.924Z,1018.53
2018-11-23T10:15:44.879Z,1018.48
2018-11-23T10:16:44.831Z,1018.52
2018-11-23T10:17:44.785Z,1018.53
2018-11-23T10:18:44.736Z,1018.52
2018-11-23T10:19:44.689Z,1018.54
2018-11-23T10:20:44.642Z,1018.50
2018-11-23T10:21:44.595Z,1018.50
2018-11-23T10:22:44.550Z,1018.52
2018-11-23T10:23:44.554Z,1018.45
2018-11-23T10:24:44.456Z,1018.47
2018-11-23T10:25:44.406Z,1018.47
2018-11-23T10:26:44.378Z,1018.48
2018-11-23T10:27:44.313Z,1018.48
2018-11-23T10:28:44.266Z,1018.48
2018-11-23T10:29:44.219Z,1018.48
2018-11-23T10:30:44.173Z,1018.47
2018-11-23T10:31:44.125Z,1018.48
2018-11-23T10:32:44.078Z,1018.45
2018-11-23T10:33:44.031Z,1018.47
2018-11-23T10:34:43.983Z,1018.45
2018-11-23T10:35:43.937Z,1018.48
2018-11-23T10:36:43.890Z,1018.45
2018-11-23T10:37:43.842Z,1018.40
2018-11-23T10:38:43.798Z,1018.42
2018-11-23T10:39:43.749Z,1018.42
2018-11-23T10:40:43.701Z,1018.42
2018-11-23T10:41:43.659Z,1018.45
2018-11-23T10:42:43.607Z,1018.46
2018-11-23T10:43:43.560Z,1018.44
2018-11-23T10:44:43.524Z,1018.45
2018-11-23T10:45:43.467Z,1018.45
2018-11-23T10:46:43.427Z,1018.45
2018-11-23T10:47:43.371Z,1018.45
2018-11-23T10:48:43.328Z,1018.41
2018-11-23T10:49:43.281Z,1018.43
2018-11-23T10:50:43.232Z,1018.37
2018-11-23T10:51:43.183Z,1018.38
2018-11-23T10:52:43.136Z,1018.36
2018-11-23T10:53:43.090Z,1018.33
2018-11-23T10:54:43.041Z,1018.32
2018-11-23T10:55:43.044Z,1018.29
2018-11-23T10:56:42.947Z,1018.25
2018-11-23T10:57:42.902Z,1018.28
2018-11-23T10:58:42.854Z,1018.25
2018-11-23T10:59:42.807Z,1018.23
2018-11-23T11:00:42.766Z,1018.24
2018-11-23T11:01:42.714Z,1018.20
2018-11-23T11:02:42.668Z,1018.20
2018-11-23T11:03:42.618Z,1018.19
2018-11-23T11:04:42.575Z,1018.20
2018-11-23T11:05:42.524Z,1018.19
2018-11-23T11:06:42.477Z,1018.17
2018-11-23T11:07:42.429Z,1018.14
2018-11-23T11:08:42.383Z,1018.15
2018-11-23T11:09:42.337Z,1018.12
2018-11-23T11:10:42.377Z,1018.09
2018-11-23T11:11:42.244Z,1018.11
2018-11-23T11:12:42.196Z,1018.10
2018-11-23T11:13:42.148Z,1018.10
2018-11-23T11:14:42.100Z,1018.09
2018-11-23T11:15:42.053Z,1018.08
2018-11-23T11:16:42.007Z,1018.06
2018-11-23T11:17:41.960Z,1018.04
2018-11-23T11:18:41.912Z,1018.03
2018-11-23T11:19:41.866Z,1018.02
2018-11-23T11:20:41.819Z,1018.03
2018-11-23T11:21:41.772Z,1018.00
2018-11-23T11:22:41.727Z,1017.99
2018-11-23T11:23:41.677Z,1018.00
2018-11-23T11:24:41.632Z,1017.98
2018-11-23T11:25:41.583Z,1017.95
2018-11-23T11:26:41.536Z,1017.92
2018-11-23T11:27:41.491Z,1017.90
2018-11-23T11:28:41.441Z,1017.88
2018-11-23T11:29:41.397Z,1017.91
2018-11-23T11:30:41.347Z,1017.87
2018-11-23T11:31:41.300Z,1017.86
2018-11-23T11:32:41.253Z,1017.88
2018-11-23T11:33:41.206Z,1017.86
2018-11-23T11:34:41.157Z,1017.91
2018-11-23T11:35:41.113Z,1017.87
2018-11-23T11:36:41.063Z,1017.90
2018-11-23T11:37:41.019Z,1017.90
2018-11-23T11:38:40.969Z,1017.91
2018-11-23T11:39:40.923Z,1017.91
2018-11-23T11:40:40.876Z,1017.86
2018-11-23T11:41:40.829Z,1017.85
2018-11-23T11:42:40.781Z,1017.85
2018-11-23T11:43:40.733Z,1017.88
2018-11-23T11:44:40.687Z,1017.85
2018-11-23T11:45:40.643Z,1017.83
2018-11-23T11:46:40.593Z,1017.80
2018-11-23T11:47:40.546Z,1017.82
2018-11-23T11:48:40.500Z,1017.76
2018-11-23T11:49:40.452Z,1017.73
2018-11-23T11:50:40.404Z,1017.71
2018-11-23T11:51:40.356Z,1017.72
2018-11-23T11:52:40.310Z,1017.67
2018-11-23T11:53:40.266Z,1017.64
2018-11-23T11:54:40.216Z,1017.64
2018-11-23T11:55:40.168Z,1017.60
2018-11-23T11:56:40.122Z,1017.55
2018-11-23T11:57:40.074Z,1017.58
2018-11-23T11:58:40.033Z,1017.57
2018-11-23T11:59:39.980Z,1017.56
2018-11-23T12:00:39.936Z,1017.53
2018-11-23T12:01:39.886Z,1017.56
2018-11-23T12:02:39.837Z,1017.56
2018-11-23T12:03:39.791Z,1017.56
2018-11-23T12:04:39.743Z,1017.60